Time;durP1;ratioP1;P1;durP2;ratioP2;P2;SDS_P1;SDS_P2;PMS_P1;PMS_P2;Temp;Humidity;BMP_temperature;BMP_pressure;BME280_temperature;BME280_humidity;BME280_pressure;Samples;Min_cycle;Max_cycle;Signal;HPM_P1;HPM_P2
2023/11/29 00:02:06;;;;;;;0.40;0.40;;;0.40;99.90;;;;;;5034429;28;20455;-77
2023/11/29 00:04:33;;;;;;;1.33;1.23;;;0.40;99.90;;;;;;5034297;28;20904;-77
2023/11/29 00:06:59;;;;;;;2.47;2.27;;;0.30;99.90;;;;;;5034368;28;20526;-77
2023/11/29 00:09:26;;;;;;;2.63;1.20;;;0.20;99.90;;;;;;5033948;28;20457;-77
2023/11/29 00:11:53;;;;;;;0.70;0.70;;;0.30;99.90;;;;;;5034194;28;20442;-78
2023/11/29 00:14:20;;;;;;;0.77;0.70;;;0.30;99.90;;;;;;5034117;28;20469;-78
2023/11/29 00:16:46;;;;;;;1.03;0.50;;;0.20;99.90;;;;;;5034138;28;20478;-78
2023/11/29 00:19:14;;;;;;;1.07;0.87;;;0.30;99.90;;;;;;5034108;28;20474;-78
2023/11/29 00:21:42;;;;;;;1.10;0.87;;;0.20;99.90;;;;;;5034081;28;20451;-78
2023/11/29 00:24:09;;;;;;;1.23;0.77;;;0.30;99.90;;;;;;5033982;28;20931;-78
2023/11/29 00:26:35;;;;;;;1.60;1.50;;;0.30;99.90;;;;;;5033687;28;20947;-78
2023/11/29 00:29:02;;;;;;;1.70;1.37;;;0.40;99.90;;;;;;5033621;28;20962;-78
2023/11/29 00:31:29;;;;;;;1.37;1.27;;;0.50;99.90;;;;;;5033989;28;20445;-78
2023/11/29 00:33:56;;;;;;;6.00;1.00;;;0.50;99.90;;;;;;5033533;28;20470;-78
2023/11/29 00:36:24;;;;;;;1.30;1.00;;;0.50;99.90;;;;;;5033579;28;20478;-78
2023/11/29 00:38:51;;;;;;;0.93;0.53;;;0.50;99.90;;;;;;5033451;28;20442;-78
2023/11/29 00:41:18;;;;;;;1.70;0.87;;;0.60;99.90;;;;;;5033707;28;20446;-77
2023/11/29 00:43:45;;;;;;;1.17;0.70;;;0.60;99.90;;;;;;5033247;28;20482;-77
2023/11/29 00:46:11;;;;;;;1.40;1.10;;;0.60;99.90;;;;;;5033716;28;20819;-77
2023/11/29 00:48:38;;;;;;;0.80;0.73;;;0.60;99.90;;;;;;5033643;28;20447;-77
2023/11/29 00:51:06;;;;;;;1.00;0.83;;;0.60;99.90;;;;;;5033565;28;20447;-77
2023/11/29 00:53:35;;;;;;;1.73;0.73;;;0.60;99.90;;;;;;5033581;28;20438;-77
2023/11/29 00:56:01;;;;;;;1.90;1.80;;;0.50;99.90;;;;;;5033200;28;20478;-77
2023/11/29 00:58:28;;;;;;;1.87;1.00;;;0.60;99.90;;;;;;5033488;28;20442;-77
2023/11/29 01:00:55;;;;;;;3.73;1.63;;;0.60;99.90;;;;;;5033492;28;20477;-77
2023/11/29 01:03:22;;;;;;;7.13;2.00;;;0.60;99.90;;;;;;5033410;28;20439;-77
2023/11/29 01:05:49;;;;;;;2.63;0.60;;;0.60;99.90;;;;;;5033381;28;20435;-78
2023/11/29 01:08:15;;;;;;;1.13;1.13;;;0.60;99.90;;;;;;5034110;28;20794;-77
2023/11/29 01:10:44;;;;;;;1.13;1.13;;;0.60;99.90;;;;;;5033223;28;20957;-77
2023/11/29 01:13:10;;;;;;;3.40;1.17;;;0.50;99.90;;;;;;5033473;28;20446;-77
2023/11/29 01:15:37;;;;;;;0.80;0.77;;;0.50;99.90;;;;;;5033339;28;20462;-77
2023/11/29 01:18:04;;;;;;;2.00;0.60;;;0.40;99.90;;;;;;5033393;28;20820;-77
2023/11/29 01:20:30;;;;;;;0.90;0.83;;;0.40;99.90;;;;;;5032929;28;20935;-77
2023/11/29 01:22:57;;;;;;;0.80;0.80;;;0.40;99.90;;;;;;5033430;28;20454;-77
2023/11/29 01:25:24;;;;;;;1.33;0.90;;;0.40;99.90;;;;;;5033310;28;20458;-77
2023/11/29 01:27:52;;;;;;;4.90;0.97;;;0.40;99.90;;;;;;5033147;28;20447;-77
2023/11/29 01:30:19;;;;;;;0.90;0.90;;;0.40;99.90;;;;;;5033174;28;20443;-77
2023/11/29 01:32:45;;;;;;;4.00;1.30;;;0.40;99.90;;;;;;5033219;28;20442;-77
2023/11/29 01:35:12;;;;;;;2.00;1.90;;;0.30;99.90;;;;;;5033096;28;20470;-77
2023/11/29 01:37:39;;;;;;;1.53;1.47;;;0.20;99.90;;;;;;5035278;28;21014;-77
2023/11/29 01:40:08;;;;;;;1.90;1.40;;;0.20;99.90;;;;;;5037264;28;20438;-78
2023/11/29 01:42:35;;;;;;;7.80;2.40;;;0.10;99.90;;;;;;5036882;28;20446;-78
2023/11/29 01:45:03;;;;;;;0.40;0.40;;;0.10;99.90;;;;;;5078260;22;20494;-77
2023/11/29 01:47:33;;;;;;;1.13;1.03;;;0.10;99.90;;;;;;5037371;28;20500;-77
2023/11/29 01:50:01;;;;;;;1.67;1.57;;;0.00;99.90;;;;;;5037914;28;20434;-77
2023/11/29 01:52:29;;;;;;;2.63;0.77;;;0.00;99.90;;;;;;5036855;28;20451;-77
2023/11/29 01:54:56;;;;;;;1.33;1.23;;;-0.10;99.90;;;;;;5037049;28;20829;-77
2023/11/29 01:57:23;;;;;;;1.43;0.77;;;-0.10;99.90;;;;;;5037167;28;20482;-77
2023/11/29 01:59:50;;;;;;;3.53;0.70;;;-0.10;99.90;;;;;;5037242;28;20450;-77
2023/11/29 02:02:18;;;;;;;0.50;0.50;;;-0.20;99.90;;;;;;5036981;28;20450;-77
2023/11/29 02:04:46;;;;;;;0.40;0.40;;;-0.20;99.90;;;;;;5036996;28;20860;-77
2023/11/29 02:07:14;;;;;;;4.07;0.90;;;-0.30;99.90;;;;;;5036881;28;20450;-77
2023/11/29 02:09:41;;;;;;;4.30;1.13;;;-0.30;99.90;;;;;;5036663;28;20519;-77
2023/11/29 02:12:08;;;;;;;0.87;0.73;;;-0.30;99.90;;;;;;5036792;28;20439;-77
2023/11/29 02:14:39;;;;;;;6.80;0.90;;;-0.40;99.90;;;;;;5036569;28;20519;-77
2023/11/29 02:17:06;;;;;;;2.63;0.93;;;-0.40;99.90;;;;;;5036608;28;20839;-77
2023/11/29 02:19:34;;;;;;;4.17;1.33;;;-0.40;99.90;;;;;;5036852;28;20429;-77
2023/11/29 02:22:01;;;;;;;0.50;0.50;;;-0.40;99.90;;;;;;5036711;28;20455;-77
2023/11/29 02:24:33;;;;;;;2.60;1.33;;;-0.50;99.90;;;;;;5036769;28;20463;-78
2023/11/29 02:27:01;;;;;;;0.87;0.73;;;-0.50;99.90;;;;;;5036708;28;20426;-77
2023/11/29 02:29:28;;;;;;;6.13;1.33;;;-0.50;99.90;;;;;;5036694;28;20442;-77
2023/11/29 02:31:54;;;;;;;0.93;0.93;;;-0.50;99.90;;;;;;5036192;28;20965;-77
2023/11/29 02:34:21;;;;;;;1.07;0.70;;;-0.60;99.90;;;;;;5036270;28;20463;-77
2023/11/29 02:36:48;;;;;;;1.43;0.60;;;-0.60;99.90;;;;;;5036060;28;20482;-77
2023/11/29 02:39:14;;;;;;;7.73;1.73;;;-0.60;99.90;;;;;;5036328;28;20837;-77
2023/11/29 02:41:41;;;;;;;0.30;0.30;;;-0.60;99.90;;;;;;5036144;28;20439;-77
2023/11/29 02:44:09;;;;;;;2.10;0.90;;;-0.60;99.90;;;;;;5035798;28;20856;-77
2023/11/29 02:46:36;;;;;;;3.33;0.60;;;-0.60;99.90;;;;;;5036080;28;20442;-77
2023/11/29 02:49:03;;;;;;;2.93;0.80;;;-0.60;99.90;;;;;;5034914;28;20442;-77
2023/11/29 02:51:30;;;;;;;2.57;1.73;;;-0.70;99.90;;;;;;5035901;28;20450;-77
2023/11/29 02:53:57;;;;;;;0.70;0.63;;;-0.80;99.90;;;;;;5035843;28;20496;-78
2023/11/29 02:56:24;;;;;;;0.67;0.67;;;-0.80;99.90;;;;;;5035591;28;20486;-78
2023/11/29 02:58:50;;;;;;;2.73;0.87;;;-0.80;99.90;;;;;;5035428;28;20946;-78
2023/11/29 03:01:19;;;;;;;0.50;0.50;;;-0.80;99.90;;;;;;5035843;28;20535;-78
2023/11/29 03:03:45;;;;;;;0.30;0.30;;;-0.80;99.90;;;;;;5035742;28;20816;-78
2023/11/29 03:06:12;;;;;;;5.80;0.60;;;-0.80;99.90;;;;;;5035666;28;20457;-78
2023/11/29 03:08:39;;;;;;;0.30;0.30;;;-0.80;99.90;;;;;;5035238;28;20958;-78
2023/11/29 03:11:06;;;;;;;0.80;0.80;;;-0.90;99.90;;;;;;5035225;28;20950;-78
2023/11/29 03:13:33;;;;;;;0.70;0.70;;;-0.90;99.90;;;;;;5035632;28;20447;-78
2023/11/29 03:16:02;;;;;;;0.40;0.30;;;-0.90;99.90;;;;;;5035328;28;20463;-77
2023/11/29 03:18:30;;;;;;;1.40;0.77;;;-1.00;99.90;;;;;;5035276;28;20497;-77
2023/11/29 03:20:57;;;;;;;0.30;0.30;;;-0.90;99.90;;;;;;5035282;28;20449;-77
2023/11/29 03:23:24;;;;;;;0.40;0.40;;;-0.90;99.90;;;;;;5035158;28;20433;-77
2023/11/29 03:25:50;;;;;;;0.80;0.80;;;-0.90;99.90;;;;;;5035257;28;20462;-78
2023/11/29 03:28:17;;;;;;;0.57;0.57;;;-1.00;99.90;;;;;;5035365;28;20450;-78
2023/11/29 03:30:44;;;;;;;1.73;1.40;;;-1.00;99.90;;;;;;5034811;28;20953;-78
2023/11/29 03:33:11;;;;;;;0.50;0.47;;;-1.00;99.90;;;;;;5034732;28;20446;-78
2023/11/29 03:35:39;;;;;;;1.23;0.40;;;-1.00;99.90;;;;;;5035075;28;20445;-78
2023/11/29 03:38:05;;;;;;;3.60;0.57;;;-1.00;99.90;;;;;;5035063;28;20494;-78
2023/11/29 03:40:32;;;;;;;0.63;0.63;;;-1.00;99.90;;;;;;5035000;28;20454;-78
2023/11/29 03:42:59;;;;;;;2.30;1.17;;;-1.00;99.90;;;;;;5034957;28;20790;-78
2023/11/29 03:45:26;;;;;;;4.13;1.13;;;-1.00;99.90;;;;;;5034234;28;20986;-78
2023/11/29 03:47:53;;;;;;;0.40;0.40;;;-1.00;99.90;;;;;;5034864;28;20450;-78
2023/11/29 03:50:19;;;;;;;1.27;0.60;;;-1.00;99.90;;;;;;5034830;28;20442;-78
2023/11/29 03:52:47;;;;;;;0.47;0.47;;;-1.10;99.90;;;;;;5034820;28;20446;-78
2023/11/29 03:55:14;;;;;;;0.30;0.30;;;-1.00;99.90;;;;;;5034616;28;20469;-78
2023/11/29 03:57:41;;;;;;;3.10;0.60;;;-0.90;99.90;;;;;;5034553;28;20844;-78
2023/11/29 04:00:09;;;;;;;0.60;0.60;;;-1.00;99.90;;;;;;5034125;28;20990;-78
2023/11/29 04:02:35;;;;;;;0.77;0.73;;;-1.00;99.90;;;;;;5034200;28;20447;-78
2023/11/29 04:05:02;;;;;;;0.50;0.50;;;-1.10;99.90;;;;;;5034412;28;20477;-78
2023/11/29 04:07:29;;;;;;;0.40;0.40;;;-1.10;99.90;;;;;;5034831;28;20439;-78
2023/11/29 04:09:57;;;;;;;0.50;0.50;;;-1.00;99.90;;;;;;5034454;28;20450;-78
2023/11/29 04:12:24;;;;;;;0.40;0.40;;;-1.00;99.90;;;;;;5034382;28;20439;-78
2023/11/29 04:14:51;;;;;;;0.30;0.30;;;-1.00;99.90;;;;;;5034009;28;20983;-78
2023/11/29 04:17:18;;;;;;;9.73;0.57;;;-1.00;99.90;;;;;;5034164;28;20482;-78
2023/11/29 04:19:45;;;;;;;0.63;0.57;;;-1.00;99.90;;;;;;5034185;28;20439;-78
2023/11/29 04:22:11;;;;;;;0.80;0.80;;;-0.90;99.90;;;;;;5034413;28;20447;-78
2023/11/29 04:24:38;;;;;;;1.03;0.60;;;-0.90;99.90;;;;;;5034170;28;20463;-78
2023/11/29 04:27:06;;;;;;;0.50;0.50;;;-0.90;99.90;;;;;;5034298;28;20442;-78
2023/11/29 04:29:33;;;;;;;0.70;0.70;;;-0.80;99.90;;;;;;5034217;28;20458;-78
2023/11/29 04:32:00;;;;;;;1.70;0.60;;;-0.80;99.90;;;;;;5034142;28;20450;-78
2023/11/29 04:34:27;;;;;;;2.00;0.80;;;-0.70;99.90;;;;;;5034104;28;20585;-78
2023/11/29 04:36:54;;;;;;;2.00;1.90;;;-0.70;99.90;;;;;;5033419;28;20479;-78
2023/11/29 04:39:20;;;;;;;3.03;1.23;;;-0.80;99.90;;;;;;5033891;28;20451;-78
2023/11/29 04:41:47;;;;;;;0.40;0.40;;;-0.80;99.90;;;;;;5033841;28;20449;-78
2023/11/29 04:44:15;;;;;;;3.83;1.10;;;-0.80;99.90;;;;;;5033712;28;20486;-78
2023/11/29 04:46:42;;;;;;;0.40;0.30;;;-0.80;99.90;;;;;;5034607;28;20423;-77
2023/11/29 04:49:09;;;;;;;0.97;0.47;;;-0.90;99.90;;;;;;5033833;28;20482;-77
2023/11/29 04:51:37;;;;;;;0.97;0.87;;;-0.90;99.90;;;;;;5033625;28;20450;-77
2023/11/29 04:54:04;;;;;;;4.30;0.80;;;-0.80;99.90;;;;;;5033657;28;20504;-78
2023/11/29 04:56:30;;;;;;;0.60;0.60;;;-0.70;99.90;;;;;;5033408;28;20450;-78
2023/11/29 04:58:57;;;;;;;0.60;0.60;;;-0.70;99.90;;;;;;5033595;28;20478;-78
2023/11/29 05:01:25;;;;;;;3.80;1.13;;;-0.70;99.90;;;;;;5033464;28;20446;-78
2023/11/29 05:03:52;;;;;;;0.70;0.60;;;-0.70;99.90;;;;;;5033138;28;20943;-78
2023/11/29 05:06:20;;;;;;;0.60;0.40;;;-0.60;99.90;;;;;;5033406;28;20450;-78
2023/11/29 05:08:46;;;;;;;0.30;0.30;;;-0.60;99.90;;;;;;5033236;28;20906;-78
2023/11/29 05:11:13;;;;;;;3.40;0.90;;;-0.60;99.90;;;;;;5032842;28;20451;-78
2023/11/29 05:13:40;;;;;;;1.33;0.70;;;-0.60;99.90;;;;;;5033350;28;20477;-78
2023/11/29 05:16:07;;;;;;;0.47;0.47;;;-0.60;99.90;;;;;;5033072;28;20469;-78
2023/11/29 05:18:35;;;;;;;0.40;0.40;;;-0.60;99.90;;;;;;5033308;28;20486;-78
2023/11/29 05:21:02;;;;;;;1.77;0.93;;;-0.60;99.90;;;;;;5033488;28;20442;-78
2023/11/29 05:23:29;;;;;;;1.73;1.30;;;-0.50;99.90;;;;;;5033348;28;20450;-78
2023/11/29 05:25:56;;;;;;;2.57;1.27;;;-0.50;99.90;;;;;;5033309;28;20520;-78
2023/11/29 05:28:25;;;;;;;1.47;1.37;;;-0.50;99.90;;;;;;5033610;28;20439;-78
2023/11/29 05:30:52;;;;;;;0.40;0.40;;;-0.40;99.90;;;;;;5033337;28;20447;-78
2023/11/29 05:33:19;;;;;;;0.70;0.70;;;-0.40;99.90;;;;;;5033245;28;20439;-78
2023/11/29 05:35:47;;;;;;;0.50;0.50;;;-0.30;99.90;;;;;;5033114;28;20537;-78
2023/11/29 05:38:14;;;;;;;0.40;0.40;;;-0.40;99.90;;;;;;5032753;28;20998;-78
2023/11/29 05:40:41;;;;;;;0.47;0.37;;;-0.40;99.90;;;;;;5033060;28;20454;-78
2023/11/29 05:43:07;;;;;;;2.73;0.80;;;-0.40;99.90;;;;;;5034049;28;20442;-78
2023/11/29 05:45:35;;;;;;;0.30;0.20;;;-0.30;99.90;;;;;;5033071;28;20489;-78
2023/11/29 05:48:02;;;;;;;1.03;1.03;;;-0.40;99.90;;;;;;5033134;28;20512;-78
2023/11/29 05:50:29;;;;;;;1.73;0.67;;;-0.30;99.90;;;;;;5033303;28;20860;-78
2023/11/29 05:52:58;;;;;;;1.17;0.90;;;-0.30;99.90;;;;;;5033159;28;20954;-78
2023/11/29 05:55:25;;;;;;;1.40;1.30;;;-0.30;99.90;;;;;;5036742;28;20461;-78
2023/11/29 05:57:51;;;;;;;0.63;0.63;;;-0.30;99.90;;;;;;5035206;28;20485;-78
2023/11/29 06:00:19;;;;;;;1.13;0.73;;;-0.30;99.90;;;;;;5033147;28;20446;-78
2023/11/29 06:02:46;;;;;;;1.77;0.70;;;-0.30;99.90;;;;;;5033315;28;20820;-78
2023/11/29 06:05:13;;;;;;;0.70;0.57;;;-0.30;99.90;;;;;;5033172;28;20533;-78
2023/11/29 06:07:40;;;;;;;2.93;1.03;;;-0.30;99.90;;;;;;5033148;28;20450;-77
2023/11/29 06:10:08;;;;;;;0.50;0.50;;;-0.30;99.90;;;;;;5033184;28;20446;-77
2023/11/29 06:12:35;;;;;;;0.57;0.57;;;-0.30;99.90;;;;;;5033625;28;20442;-77
2023/11/29 06:15:04;;;;;;;0.70;0.50;;;-0.30;99.90;;;;;;5032978;28;20471;-78
2023/11/29 06:17:32;;;;;;;1.33;0.50;;;-0.30;99.90;;;;;;5032915;28;20521;-78
2023/11/29 06:19:59;;;;;;;1.73;0.90;;;-0.30;99.90;;;;;;5033208;28;20442;-78
2023/11/29 06:22:27;;;;;;;0.80;0.60;;;-0.30;99.90;;;;;;5033451;28;20447;-78
2023/11/29 06:24:54;;;;;;;0.93;0.40;;;-0.30;99.90;;;;;;5036123;28;20986;-78
2023/11/29 06:27:22;;;;;;;0.30;0.30;;;-0.20;99.90;;;;;;5036417;28;20493;-78
2023/11/29 06:29:49;;;;;;;1.20;0.60;;;-0.30;99.90;;;;;;5036349;28;20987;-77
2023/11/29 06:32:16;;;;;;;0.93;0.60;;;-0.20;99.90;;;;;;5036278;28;20446;-77
2023/11/29 06:34:44;;;;;;;1.33;0.70;;;-0.20;99.90;;;;;;5035899;28;20463;-78
2023/11/29 06:37:10;;;;;;;0.50;0.40;;;-0.10;99.90;;;;;;5036335;28;20458;-78
2023/11/29 06:39:37;;;;;;;1.27;0.80;;;-0.10;99.90;;;;;;5035868;28;20482;-78
2023/11/29 06:42:04;;;;;;;2.90;1.23;;;-0.10;99.90;;;;;;5036093;28;20450;-78
2023/11/29 06:44:32;;;;;;;0.40;0.30;;;-0.10;99.90;;;;;;5035643;28;20479;-78
2023/11/29 06:46:59;;;;;;;0.50;0.50;;;-0.10;99.90;;;;;;5035774;28;20445;-78
2023/11/29 06:49:26;;;;;;;1.70;0.67;;;-0.10;99.90;;;;;;5035893;28;20937;-78
2023/11/29 06:51:53;;;;;;;1.60;0.73;;;-0.20;99.90;;;;;;5035601;28;20489;-78
2023/11/29 06:54:20;;;;;;;1.03;0.60;;;-0.20;99.90;;;;;;5035808;28;20467;-78
2023/11/29 06:56:47;;;;;;;2.67;0.70;;;-0.10;99.90;;;;;;5035747;28;20481;-78
2023/11/29 06:59:14;;;;;;;0.70;0.70;;;0.00;99.90;;;;;;5035589;28;20565;-78
2023/11/29 07:01:43;;;;;;;2.00;0.60;;;0.00;99.90;;;;;;5035960;28;20921;-78
2023/11/29 07:04:09;;;;;;;0.60;0.53;;;0.10;99.90;;;;;;5035442;28;20467;-78
2023/11/29 07:06:39;;;;;;;0.30;0.20;;;0.10;99.90;;;;;;5035565;28;20445;-78
2023/11/29 07:09:06;;;;;;;0.40;0.40;;;0.10;99.90;;;;;;5035370;28;20443;-77
2023/11/29 07:11:34;;;;;;;0.83;0.83;;;0.10;99.90;;;;;;5035615;28;20422;-77
2023/11/29 07:14:01;;;;;;;1.37;0.80;;;0.00;99.90;;;;;;5035255;28;20454;-78
2023/11/29 07:16:28;;;;;;;0.93;0.40;;;0.00;99.90;;;;;;5036423;28;20422;-78
2023/11/29 07:18:56;;;;;;;0.90;0.80;;;0.10;99.90;;;;;;5034897;28;20485;-78
2023/11/29 07:21:23;;;;;;;0.30;0.30;;;0.10;99.90;;;;;;5035132;28;20541;-78
2023/11/29 07:23:49;;;;;;;0.30;0.30;;;0.20;99.90;;;;;;5035108;28;20445;-78
2023/11/29 07:26:16;;;;;;;1.53;0.43;;;0.20;99.90;;;;;;5035156;28;20450;-78
2023/11/29 07:28:45;;;;;;;1.03;0.83;;;0.20;99.90;;;;;;5035214;28;20439;-78
2023/11/29 07:31:11;;;;;;;0.40;0.40;;;0.30;99.90;;;;;;5035210;28;20549;-78
2023/11/29 07:33:38;;;;;;;2.43;1.87;;;0.30;99.90;;;;;;5035034;28;20443;-78
2023/11/29 07:36:11;;;;;;;2.23;0.87;;;0.20;99.90;;;;;;5034210;28;20474;-78
2023/11/29 07:38:38;;;;;;;0.90;0.70;;;0.30;99.90;;;;;;5039492;28;20546;-78
2023/11/29 07:41:05;;;;;;;0.60;0.60;;;0.30;99.90;;;;;;5040310;28;20828;-78
2023/11/29 07:43:32;;;;;;;0.90;0.60;;;0.30;99.90;;;;;;5037537;28;20898;-78
2023/11/29 07:46:03;;;;;;;0.30;0.30;;;0.30;99.90;;;;;;5036776;28;20482;-78
2023/11/29 07:48:30;;;;;;;0.60;0.60;;;0.40;99.90;;;;;;5037819;28;20545;-77
2023/11/29 07:50:57;;;;;;;0.80;0.60;;;0.40;99.90;;;;;;5043051;28;20497;-77
2023/11/29 07:53:25;;;;;;;0.40;0.40;;;0.30;99.90;;;;;;5038287;28;20425;-77
2023/11/29 07:55:52;;;;;;;0.40;0.40;;;0.30;99.90;;;;;;5034990;28;20485;-77
2023/11/29 07:58:19;;;;;;;0.60;0.60;;;0.40;99.90;;;;;;5034426;28;20485;-77
2023/11/29 08:00:46;;;;;;;3.10;1.10;;;0.40;99.90;;;;;;5034781;28;20450;-77
2023/11/29 08:03:14;;;;;;;2.40;0.70;;;0.30;99.90;;;;;;5034594;28;20520;-77
2023/11/29 08:05:41;;;;;;;0.70;0.60;;;0.40;99.90;;;;;;5034260;28;20502;-77
2023/11/29 08:08:09;;;;;;;1.00;0.50;;;0.40;99.90;;;;;;5034271;28;20447;-77
2023/11/29 08:10:37;;;;;;;2.50;1.27;;;0.40;99.90;;;;;;5034296;28;20498;-77
2023/11/29 08:13:03;;;;;;;1.47;1.37;;;0.50;99.90;;;;;;5034297;28;20485;-77
2023/11/29 08:15:30;;;;;;;0.67;0.67;;;0.50;99.90;;;;;;5034213;28;20857;-78
2023/11/29 08:17:57;;;;;;;0.60;0.60;;;0.40;99.90;;;;;;5034190;28;20451;-78
2023/11/29 08:20:24;;;;;;;0.47;0.47;;;0.60;99.90;;;;;;5034314;28;20447;-77
2023/11/29 08:22:50;;;;;;;0.83;0.70;;;0.70;99.90;;;;;;5034407;28;20443;-77
2023/11/29 08:25:20;;;;;;;1.47;1.00;;;0.70;99.90;;;;;;5034469;28;20466;-77
2023/11/29 08:27:48;;;;;;;1.80;0.60;;;0.80;99.90;;;;;;5034012;28;20986;-77
2023/11/29 08:30:16;;;;;;;0.47;0.47;;;0.80;99.90;;;;;;5034374;28;20815;-77
2023/11/29 08:32:44;;;;;;;1.57;0.60;;;0.80;99.90;;;;;;5034101;28;20443;-77
2023/11/29 08:35:11;;;;;;;0.30;0.30;;;0.80;99.90;;;;;;5034045;28;20507;-77
2023/11/29 08:37:38;;;;;;;0.70;0.70;;;0.70;99.90;;;;;;5034150;28;20830;-77
2023/11/29 08:40:06;;;;;;;1.50;0.60;;;0.70;99.90;;;;;;5033774;28;20482;-78
2023/11/29 08:42:33;;;;;;;0.97;0.90;;;0.80;99.90;;;;;;5034052;28;20541;-77
2023/11/29 08:45:01;;;;;;;0.60;0.50;;;0.80;99.90;;;;;;5033366;28;20495;-77
2023/11/29 08:47:28;;;;;;;0.53;0.53;;;0.80;99.90;;;;;;5033176;28;20447;-77
2023/11/29 08:49:55;;;;;;;0.70;0.50;;;0.80;99.90;;;;;;5034052;28;20450;-77
2023/11/29 08:52:22;;;;;;;1.43;0.97;;;0.80;99.90;;;;;;5034434;28;20446;-77
2023/11/29 08:54:50;;;;;;;0.40;0.40;;;1.00;99.90;;;;;;5034013;28;20478;-77
2023/11/29 08:57:17;;;;;;;0.33;0.33;;;0.90;99.90;;;;;;5033958;28;20800;-77
2023/11/29 08:59:44;;;;;;;1.13;0.60;;;0.90;99.90;;;;;;5033865;28;20486;-77
2023/11/29 09:02:12;;;;;;;1.03;0.90;;;0.90;99.90;;;;;;5033706;28;20441;-77
2023/11/29 09:04:39;;;;;;;0.50;0.40;;;0.90;99.90;;;;;;5033568;28;20461;-77
2023/11/29 09:07:07;;;;;;;0.50;0.50;;;0.90;99.90;;;;;;5033878;28;20449;-77
2023/11/29 09:09:34;;;;;;;0.60;0.60;;;0.90;99.90;;;;;;5033954;28;20500;-78
2023/11/29 09:12:01;;;;;;;0.30;0.30;;;1.00;99.90;;;;;;5033897;28;20541;-77
2023/11/29 09:14:29;;;;;;;0.47;0.47;;;1.00;99.90;;;;;;5033919;28;20529;-77
2023/11/29 09:16:56;;;;;;;0.53;0.53;;;1.20;99.90;;;;;;5033804;28;20943;-77
2023/11/29 09:19:24;;;;;;;0.30;0.30;;;1.10;99.90;;;;;;5033648;28;20894;-77
2023/11/29 09:21:51;;;;;;;0.40;0.40;;;1.30;99.90;;;;;;5033418;28;20811;-77
2023/11/29 09:24:18;;;;;;;0.73;0.73;;;1.50;99.90;;;;;;5034038;28;20929;-77
2023/11/29 09:26:44;;;;;;;1.03;0.73;;;1.50;99.90;;;;;;5033734;28;20817;-77
2023/11/29 09:29:11;;;;;;;0.80;0.80;;;1.60;99.90;;;;;;5033681;28;20450;-77
2023/11/29 09:31:39;;;;;;;0.40;0.40;;;1.80;99.90;;;;;;5033421;28;20451;-77
2023/11/29 09:34:06;;;;;;;0.70;0.70;;;2.40;99.90;;;;;;5033328;28;20638;-78
2023/11/29 09:36:34;;;;;;;0.83;0.83;;;2.90;99.90;;;;;;5033098;28;20446;-77
2023/11/29 09:39:11;;;;;;;2.43;0.80;;;3.20;99.90;;;;;;5033007;28;20488;-77
2023/11/29 09:41:38;;;;;;;1.00;0.50;;;3.70;99.90;;;;;;5033690;28;20427;-77
2023/11/29 09:44:05;;;;;;;0.60;0.60;;;4.00;99.90;;;;;;5032650;28;20462;-77
2023/11/29 09:46:32;;;;;;;2.50;0.70;;;3.90;99.90;;;;;;5033531;28;20456;-77
2023/11/29 09:49:00;;;;;;;1.20;0.63;;;3.60;99.90;;;;;;5033185;28;20450;-77
2023/11/29 09:51:27;;;;;;;3.33;1.27;;;3.40;99.90;;;;;;5041597;28;20453;-80
2023/11/29 09:53:55;;;;;;;1.00;0.70;;;3.20;99.90;;;;;;5039219;28;20449;-81
2023/11/29 09:56:22;;;;;;;0.73;0.73;;;2.80;99.90;;;;;;5037243;28;20451;-79
2023/11/29 09:58:49;;;;;;;0.63;0.63;;;2.70;99.90;;;;;;5041360;28;20569;-80
2023/11/29 10:01:16;;;;;;;2.83;1.23;;;2.60;99.90;;;;;;5042402;28;20454;-80
2023/11/29 10:03:43;;;;;;;4.00;0.90;;;2.60;99.90;;;;;;5042107;28;20442;-79
2023/11/29 10:06:10;;;;;;;0.60;0.30;;;2.40;99.90;;;;;;5041634;28;20449;-80
2023/11/29 10:08:37;;;;;;;3.13;1.50;;;2.40;99.90;;;;;;5040835;28;20505;-82
2023/11/29 10:11:06;;;;;;;0.63;0.43;;;2.50;99.90;;;;;;5042661;28;20454;-82
2023/11/29 10:13:33;;;;;;;2.33;0.50;;;2.70;99.90;;;;;;5042861;28;20450;-81
2023/11/29 10:16:00;;;;;;;0.70;0.50;;;2.80;99.90;;;;;;5043059;28;20497;-84
2023/11/29 10:18:26;;;;;;;0.60;0.40;;;2.80;99.90;;;;;;5040877;28;20529;-80
2023/11/29 10:20:53;;;;;;;6.07;0.97;;;2.80;99.90;;;;;;5040380;28;20442;-80
2023/11/29 10:23:21;;;;;;;2.10;0.83;;;2.80;99.90;;;;;;5041326;28;20438;-81
2023/11/29 10:25:49;;;;;;;1.33;1.23;;;2.70;99.90;;;;;;5042293;28;20470;-80
2023/11/29 10:28:17;;;;;;;0.80;0.60;;;2.60;99.90;;;;;;5041189;28;20446;-80
2023/11/29 10:30:43;;;;;;;1.43;0.90;;;2.60;99.90;;;;;;5040700;28;20774;-79
2023/11/29 10:33:11;;;;;;;4.10;1.00;;;2.60;99.90;;;;;;5042499;28;20442;-80
2023/11/29 10:35:38;;;;;;;0.77;0.50;;;2.80;99.90;;;;;;5042315;28;20462;-81
2023/11/29 10:38:11;;;;;;;3.20;1.13;;;2.70;99.90;;;;;;5042356;28;20423;-80
2023/11/29 10:40:39;;;;;;;1.23;1.23;;;2.70;99.90;;;;;;5040765;28;20506;-80
2023/11/29 10:43:08;;;;;;;1.17;0.87;;;2.80;99.90;;;;;;5039953;28;20445;-80
2023/11/29 10:45:40;;;;;;;1.93;0.70;;;2.90;99.90;;;;;;5039436;28;20580;-79
2023/11/29 10:48:15;;;;;;;0.50;0.50;;;2.80;99.90;;;;;;5039354;28;20441;-80
2023/11/29 10:50:46;;;;;;;0.97;0.63;;;2.80;99.90;;;;;;5038980;28;20437;-79
2023/11/29 10:53:13;;;;;;;0.50;0.50;;;2.80;99.90;;;;;;5041112;28;20412;-79
2023/11/29 10:55:40;;;;;;;0.83;0.50;;;2.90;99.90;;;;;;5039091;28;20462;-80
2023/11/29 10:58:19;;;;;;;0.50;0.33;;;3.00;99.90;;;;;;5039286;28;20435;-80
2023/11/29 11:00:48;;;;;;;1.83;0.87;;;3.10;99.90;;;;;;5038782;28;20466;-81
2023/11/29 11:03:39;;;;;;;1.47;0.60;;;3.10;99.90;;;;;;5040033;28;20512;-80
2023/11/29 11:06:35;;;;;;;0.60;0.60;;;3.10;99.90;;;;;;5038989;28;20463;-80
2023/11/29 11:09:03;;;;;;;0.57;0.57;;;3.00;99.90;;;;;;4982160;28;20451;-79
2023/11/29 11:11:42;;;;;;;1.40;1.40;;;3.00;99.90;;;;;;5036213;28;20447;-80
2023/11/29 11:14:17;;;;;;;0.83;0.53;;;3.10;99.90;;;;;;5036789;28;20465;-80
2023/11/29 11:17:01;;;;;;;0.63;0.40;;;3.10;99.90;;;;;;5037218;28;20430;-80
2023/11/29 11:19:33;;;;;;;1.07;1.03;;;3.00;99.90;;;;;;5038205;28;20475;-80
2023/11/29 11:22:00;;;;;;;1.63;1.40;;;2.90;99.90;;;;;;5040208;28;20423;-81
2023/11/29 11:25:00;;;;;;;0.67;0.60;;;3.00;99.90;;;;;;5038319;28;20466;-80
2023/11/29 11:27:31;;;;;;;0.50;0.50;;;2.90;99.90;;;;;;5038473;28;20427;-79
2023/11/29 11:29:58;;;;;;;2.57;0.80;;;2.80;99.90;;;;;;5039003;28;20427;-80
2023/11/29 11:32:47;;;;;;;0.40;0.40;;;2.80;99.90;;;;;;5040352;28;20443;-80
2023/11/29 11:35:36;;;;;;;1.90;0.67;;;2.80;99.90;;;;;;5038376;28;20506;-80
2023/11/29 11:38:06;;;;;;;0.87;0.87;;;2.80;99.90;;;;;;5038054;28;20446;-80
2023/11/29 11:40:34;;;;;;;3.60;0.83;;;2.70;99.90;;;;;;5038234;28;20475;-80
2023/11/29 11:43:01;;;;;;;1.13;1.03;;;2.80;99.90;;;;;;5040684;28;20875;-80
2023/11/29 11:45:32;;;;;;;0.43;0.43;;;2.70;99.90;;;;;;5040584;28;20489;-80
2023/11/29 11:48:01;;;;;;;1.00;0.70;;;2.70;99.90;;;;;;5038246;28;20435;-80
2023/11/29 11:50:28;;;;;;;0.67;0.67;;;2.70;99.90;;;;;;5038141;28;20447;-80
2023/11/29 11:52:59;;;;;;;2.00;0.70;;;2.70;99.90;;;;;;5039461;28;20452;-80
2023/11/29 11:55:27;;;;;;;0.60;0.60;;;2.70;99.90;;;;;;5038169;28;20467;-80
2023/11/29 11:57:55;;;;;;;1.07;0.67;;;2.70;99.90;;;;;;5037098;28;20939;-79
2023/11/29 12:00:23;;;;;;;1.07;0.97;;;2.60;99.90;;;;;;5037393;28;20573;-80
2023/11/29 12:02:50;;;;;;;1.33;1.23;;;2.50;99.90;;;;;;5038567;28;20451;-81
2023/11/29 12:05:19;;;;;;;2.67;1.27;;;2.60;99.90;;;;;;5038784;28;20466;-81
2023/11/29 12:07:47;;;;;;;1.00;0.90;;;2.50;99.90;;;;;;5036714;28;20442;-80
2023/11/29 12:10:16;;;;;;;0.60;0.50;;;2.40;99.90;;;;;;5037350;28;20448;-79
2023/11/29 12:12:44;;;;;;;0.43;0.40;;;2.40;99.90;;;;;;5039576;28;20434;-80
2023/11/29 12:15:14;;;;;;;0.40;0.40;;;2.30;99.90;;;;;;5037964;28;20470;-79
2023/11/29 12:17:41;;;;;;;0.30;0.30;;;2.30;99.90;;;;;;5034948;28;20481;-79
2023/11/29 12:20:09;;;;;;;0.33;0.33;;;2.40;99.90;;;;;;5034928;28;20471;-79
2023/11/29 12:22:41;;;;;;;0.57;0.40;;;2.40;99.90;;;;;;5034677;28;20438;-81
2023/11/29 12:25:12;;;;;;;0.87;0.40;;;2.40;99.90;;;;;;5035069;28;20497;-80
2023/11/29 12:27:40;;;;;;;0.37;0.37;;;2.40;99.90;;;;;;5035486;28;20434;-79
2023/11/29 12:30:09;;;;;;;0.43;0.40;;;2.50;99.90;;;;;;5034752;28;20497;-79
2023/11/29 12:32:36;;;;;;;0.87;0.40;;;2.50;99.90;;;;;;5035196;28;20459;-79
2023/11/29 12:35:04;;;;;;;0.50;0.50;;;2.50;99.90;;;;;;5035045;28;20971;-79
2023/11/29 12:37:33;;;;;;;0.40;0.40;;;2.60;99.90;;;;;;5037594;28;20496;-81
2023/11/29 12:40:01;;;;;;;1.67;0.60;;;2.60;99.90;;;;;;5037147;28;20489;-80
2023/11/29 12:42:29;;;;;;;0.70;0.67;;;2.70;99.90;;;;;;5039131;28;20449;-80
2023/11/29 12:44:55;;;;;;;0.40;0.40;;;2.60;99.90;;;;;;5041398;28;20544;-80
2023/11/29 12:47:23;;;;;;;0.30;0.30;;;2.60;99.90;;;;;;5037657;28;20939;-80
2023/11/29 12:49:49;;;;;;;1.10;1.00;;;2.60;99.90;;;;;;5039476;28;20822;-80
2023/11/29 12:52:16;;;;;;;0.63;0.40;;;2.60;99.90;;;;;;5037472;28;20447;-79
2023/11/29 12:54:43;;;;;;;0.60;0.40;;;2.60;99.90;;;;;;5039184;28;20529;-81
2023/11/29 12:57:12;;;;;;;0.60;0.40;;;2.50;99.90;;;;;;5039718;28;20965;-80